Time;durP1;ratioP1;P1;durP2;ratioP2;P2;SDS_P1;SDS_P2;PMS_P1;PMS_P2;Temp;Humidity;BMP_temperature;BMP_pressure;BME280_temperature;BME280_humidity;BME280_pressure;Samples;Min_cycle;Max_cycle;Signal;HPM_P1;HPM_P2
2022/05/04 00:01:08;;;;;;;7.20;3.10;;;8.40;99.90;;;;;;5054734;28;20133;-76
2022/05/04 00:03:39;;;;;;;13.93;3.25;;;8.40;99.90;;;;;;5054292;28;20053;-76
2022/05/04 00:06:05;;;;;;;12.13;3.05;;;8.40;99.90;;;;;;5054498;28;20412;-76
2022/05/04 00:08:31;;;;;;;13.25;3.17;;;8.40;99.90;;;;;;5055710;28;20067;-76
2022/05/04 00:10:57;;;;;;;15.98;4.03;;;8.40;99.90;;;;;;5055661;28;20459;-76
2022/05/04 00:13:23;;;;;;;15.43;3.78;;;8.40;99.90;;;;;;5055557;28;20041;-76
2022/05/04 00:15:48;;;;;;;16.65;3.80;;;8.40;99.90;;;;;;5054265;28;20136;-76
2022/05/04 00:18:14;;;;;;;12.10;3.30;;;8.40;99.90;;;;;;5054224;28;20045;-76
2022/05/04 00:20:41;;;;;;;12.77;3.47;;;8.40;99.90;;;;;;5054474;28;20051;-76
2022/05/04 00:23:06;;;;;;;12.27;3.42;;;8.30;99.90;;;;;;5053970;28;20049;-76
2022/05/04 00:25:32;;;;;;;12.77;3.40;;;8.40;99.90;;;;;;5054259;28;20060;-76
2022/05/04 00:28:00;;;;;;;11.05;3.10;;;8.40;99.90;;;;;;5055148;28;20095;-76
2022/05/04 00:30:26;;;;;;;10.25;3.22;;;8.50;99.90;;;;;;5053954;28;20110;-76
2022/05/04 00:32:52;;;;;;;13.70;3.65;;;8.50;99.90;;;;;;5053967;28;20044;-76
2022/05/04 00:35:17;;;;;;;11.82;2.78;;;8.50;99.90;;;;;;5053860;28;20045;-76
2022/05/04 00:37:43;;;;;;;11.85;3.40;;;8.50;99.90;;;;;;5053731;28;20045;-76
2022/05/04 00:40:09;;;;;;;13.75;3.40;;;8.50;99.90;;;;;;5053967;28;20041;-76
2022/05/04 00:42:35;;;;;;;12.77;3.38;;;8.50;99.90;;;;;;5055080;28;20105;-76
2022/05/04 00:45:00;;;;;;;15.85;3.45;;;8.50;99.90;;;;;;5053662;28;20041;-76
2022/05/04 00:47:26;;;;;;;20.90;4.30;;;8.40;99.90;;;;;;5053605;28;20510;-76
2022/05/04 00:49:52;;;;;;;14.98;3.70;;;8.40;99.90;;;;;;5055160;28;20044;-76
2022/05/04 00:52:19;;;;;;;14.68;3.28;;;8.50;99.90;;;;;;5054637;28;20049;-76
2022/05/04 00:54:46;;;;;;;17.73;3.22;;;8.50;99.90;;;;;;5053439;28;20056;-76
2022/05/04 00:57:14;;;;;;;14.23;3.35;;;8.50;99.90;;;;;;5054785;28;20048;-76
2022/05/04 00:59:41;;;;;;;13.85;3.33;;;8.40;99.90;;;;;;5054775;28;20079;-76
2022/05/04 01:02:06;;;;;;;9.25;2.70;;;8.50;99.90;;;;;;5054364;28;20060;-76
2022/05/04 01:04:32;;;;;;;12.40;3.17;;;8.50;99.90;;;;;;5054561;28;20037;-76
2022/05/04 01:06:58;;;;;;;13.93;3.60;;;8.50;99.90;;;;;;5053375;28;20102;-75
2022/05/04 01:09:23;;;;;;;14.73;3.15;;;8.40;99.90;;;;;;5054057;28;20562;-76
2022/05/04 01:11:49;;;;;;;8.68;3.20;;;8.50;99.90;;;;;;5053707;28;20037;-76
2022/05/04 01:14:16;;;;;;;13.50;3.13;;;8.50;99.90;;;;;;5053107;28;20044;-76
2022/05/04 01:16:45;;;;;;;16.80;3.13;;;8.40;99.90;;;;;;5054291;28;20123;-76
2022/05/04 01:19:12;;;;;;;11.63;4.53;;;8.50;99.90;;;;;;5053105;28;20435;-77
2022/05/04 01:21:38;;;;;;;10.73;2.47;;;8.50;99.90;;;;;;5052900;28;20102;-76
2022/05/04 01:24:04;;;;;;;17.65;4.05;;;8.40;99.90;;;;;;5054223;28;20033;-76
2022/05/04 01:26:30;;;;;;;9.52;3.08;;;8.40;99.90;;;;;;5054213;28;20125;-76
2022/05/04 01:28:55;;;;;;;10.45;3.30;;;8.40;99.90;;;;;;5052903;28;20446;-76
2022/05/04 01:31:22;;;;;;;13.65;4.50;;;8.40;99.90;;;;;;5053979;28;20044;-76
2022/05/04 01:33:48;;;;;;;9.55;2.72;;;8.30;99.90;;;;;;5052797;28;20132;-76
2022/05/04 01:36:13;;;;;;;10.60;4.00;;;8.30;99.90;;;;;;5053852;28;20148;-76
2022/05/04 01:38:39;;;;;;;12.20;2.97;;;8.30;99.90;;;;;;5053861;28;20045;-76
2022/05/04 01:41:04;;;;;;;11.13;3.10;;;8.30;99.90;;;;;;5052916;28;20333;-76
2022/05/04 01:43:30;;;;;;;11.68;3.55;;;8.30;99.90;;;;;;5052660;28;20045;-76
2022/05/04 01:45:57;;;;;;;12.15;3.00;;;8.40;99.90;;;;;;5052551;28;20099;-76
2022/05/04 01:48:23;;;;;;;14.82;3.10;;;8.40;99.90;;;;;;5054116;28;20443;-76
2022/05/04 01:50:49;;;;;;;10.27;3.72;;;8.40;99.90;;;;;;5053696;28;20081;-76
2022/05/04 01:53:15;;;;;;;9.50;2.83;;;8.40;99.90;;;;;;5052383;28;20072;-76
2022/05/04 01:55:42;;;;;;;9.75;2.80;;;8.40;99.90;;;;;;5052420;28;20053;-76
2022/05/04 01:58:07;;;;;;;7.05;3.20;;;8.40;99.90;;;;;;5052748;28;20052;-76
2022/05/04 02:00:34;;;;;;;11.38;3.40;;;8.40;99.90;;;;;;5053637;28;20455;-76
2022/05/04 02:03:00;;;;;;;10.45;2.72;;;8.30;99.90;;;;;;5053289;28;20061;-76
2022/05/04 02:05:27;;;;;;;16.35;5.43;;;8.30;99.90;;;;;;5053696;28;20052;-76
2022/05/04 02:07:54;;;;;;;11.90;3.53;;;8.30;99.90;;;;;;5053664;28;20120;-76
2022/05/04 02:10:20;;;;;;;15.68;3.58;;;8.30;99.90;;;;;;5053605;28;20049;-76
2022/05/04 02:12:45;;;;;;;12.38;2.88;;;8.30;99.90;;;;;;5053675;28;20044;-76
2022/05/04 02:15:11;;;;;;;11.45;3.40;;;8.20;99.90;;;;;;5052169;28;20049;-76
2022/05/04 02:17:38;;;;;;;11.02;3.58;;;8.30;99.90;;;;;;5052091;28;20102;-76
2022/05/04 02:20:05;;;;;;;9.38;3.15;;;8.30;99.90;;;;;;5053530;28;20045;-76
2022/05/04 02:22:31;;;;;;;12.05;3.40;;;8.20;99.90;;;;;;5055993;28;20052;-77
2022/05/04 02:24:57;;;;;;;15.98;3.42;;;8.20;99.90;;;;;;5057560;28;20058;-76
2022/05/04 02:27:22;;;;;;;8.73;3.30;;;8.10;99.90;;;;;;5057556;28;20124;-76
2022/05/04 02:29:49;;;;;;;16.75;3.20;;;8.10;99.90;;;;;;5057519;28;20033;-76
2022/05/04 02:32:14;;;;;;;9.52;3.15;;;8.20;99.90;;;;;;5057503;28;20037;-76
2022/05/04 02:40:11;;;;;;;14.25;2.90;;;8.30;99.90;;;;;;5057357;28;20114;-74
2022/05/04 02:42:37;;;;;;;11.68;2.95;;;8.30;99.90;;;;;;5057128;28;20051;-74
2022/05/04 02:45:04;;;;;;;11.15;2.78;;;8.20;99.90;;;;;;5056144;28;20053;-75
2022/05/04 02:47:30;;;;;;;9.48;3.17;;;8.30;99.90;;;;;;5056136;28;20112;-75
2022/05/04 02:49:55;;;;;;;10.00;3.50;;;8.30;99.90;;;;;;5056132;28;20202;-75
2022/05/04 02:52:21;;;;;;;9.80;2.67;;;8.30;99.90;;;;;;5055863;28;20501;-76
2022/05/04 02:54:46;;;;;;;9.38;3.22;;;8.20;99.90;;;;;;5055694;28;20082;-75
2022/05/04 02:57:12;;;;;;;12.43;3.10;;;8.30;99.90;;;;;;5055667;28;20131;-75
2022/05/04 02:59:38;;;;;;;12.27;3.10;;;8.30;99.90;;;;;;5055573;28;20045;-76
2022/05/04 03:04:47;;;;;;;9.93;3.10;;;8.30;99.90;;;;;;5056972;28;20064;-74
2022/05/04 03:07:13;;;;;;;9.40;2.92;;;8.20;99.90;;;;;;5056783;28;20116;-76
2022/05/04 03:09:39;;;;;;;9.57;2.95;;;8.20;99.90;;;;;;5088956;28;20052;-76
2022/05/04 03:12:05;;;;;;;9.93;2.55;;;8.20;99.90;;;;;;5056799;28;20491;-76
2022/05/04 03:14:30;;;;;;;13.38;2.60;;;8.30;99.90;;;;;;5056644;28;20041;-76
2022/05/04 03:16:57;;;;;;;10.48;3.53;;;8.30;99.90;;;;;;5055377;28;20045;-76
2022/05/04 03:19:23;;;;;;;12.30;2.90;;;8.30;99.90;;;;;;5056601;28;20052;-76
2022/05/04 03:21:50;;;;;;;8.88;3.03;;;8.30;99.90;;;;;;5056522;28;20098;-76
2022/05/04 03:24:16;;;;;;;12.50;2.80;;;8.30;99.90;;;;;;5055339;28;20473;-76
2022/05/04 03:26:42;;;;;;;13.45;3.00;;;8.20;99.90;;;;;;5056509;28;20124;-76
2022/05/04 03:29:08;;;;;;;11.23;3.47;;;8.20;99.90;;;;;;5056418;28;20045;-76
2022/05/04 03:31:33;;;;;;;14.98;2.72;;;8.20;99.90;;;;;;5056350;28;20033;-76
2022/05/04 03:33:59;;;;;;;13.45;2.92;;;8.20;99.90;;;;;;5055209;28;20391;-76
2022/05/04 03:36:25;;;;;;;12.18;2.70;;;8.20;99.90;;;;;;5056331;28;20095;-76
2022/05/04 03:38:51;;;;;;;12.00;2.70;;;8.20;99.90;;;;;;5055980;28;20358;-76
2022/05/04 03:41:17;;;;;;;9.40;2.72;;;8.10;99.90;;;;;;5055082;28;20489;-76
2022/05/04 03:43:42;;;;;;;12.05;3.20;;;8.10;99.90;;;;;;5056047;28;20362;-76
2022/05/04 03:46:28;;;;;;;9.77;2.70;;;8.10;99.90;;;;;;5054895;28;20041;-76
2022/05/04 03:49:01;;;;;;;9.85;2.70;;;8.10;99.90;;;;;;5054835;28;20107;-76
2022/05/04 03:51:28;;;;;;;16.92;4.82;;;8.10;99.90;;;;;;5056044;28;20060;-76
2022/05/04 03:53:54;;;;;;;12.57;3.28;;;8.20;99.90;;;;;;5055794;28;20481;-76
2022/05/04 03:56:20;;;;;;;9.88;2.88;;;8.20;99.90;;;;;;5054424;28;20041;-76
2022/05/04 03:58:46;;;;;;;10.18;2.50;;;8.20;99.90;;;;;;5055620;28;20106;-76
2022/05/04 04:01:13;;;;;;;15.00;3.10;;;8.20;99.90;;;;;;5055019;28;20117;-76
2022/05/04 04:03:39;;;;;;;12.05;3.33;;;8.20;99.90;;;;;;5054897;28;20089;-76
2022/05/04 04:06:05;;;;;;;11.18;3.00;;;8.20;99.90;;;;;;5054552;28;20052;-76
2022/05/04 04:08:32;;;;;;;8.80;3.22;;;8.20;99.90;;;;;;5054582;28;20045;-76
2022/05/04 04:10:58;;;;;;;13.48;3.22;;;8.20;99.90;;;;;;5053999;28;20488;-76
2022/05/04 04:13:24;;;;;;;11.57;2.58;;;8.20;99.90;;;;;;5054373;28;20048;-75
2022/05/04 04:15:51;;;;;;;10.63;3.28;;;8.20;99.90;;;;;;5055145;28;20522;-75
2022/05/04 04:18:21;;;;;;;8.43;2.30;;;8.20;99.90;;;;;;5055163;28;20480;-76
2022/05/04 04:23:32;;;;;;;19.70;3.00;;;8.10;99.90;;;;;;5055341;28;20179;-76
2022/05/04 04:25:58;;;;;;;10.10;3.30;;;8.20;99.90;;;;;;5054973;28;20450;-76
2022/05/04 04:28:25;;;;;;;9.48;2.67;;;8.10;99.90;;;;;;5087490;28;20135;-76
2022/05/04 04:30:51;;;;;;;13.57;2.85;;;8.10;99.90;;;;;;5055260;28;20091;-76
2022/05/04 04:33:16;;;;;;;12.07;3.10;;;8.10;99.90;;;;;;5053614;28;20056;-76
2022/05/04 04:35:42;;;;;;;11.63;3.42;;;8.10;99.90;;;;;;5053941;28;20510;-76
2022/05/04 04:38:08;;;;;;;11.27;3.10;;;8.10;99.90;;;;;;5087346;28;20072;-76
2022/05/04 04:40:33;;;;;;;9.55;3.45;;;8.10;99.90;;;;;;5053840;28;20463;-76
2022/05/04 04:43:02;;;;;;;13.23;3.38;;;8.20;99.90;;;;;;5054607;28;20392;-76
2022/05/04 04:45:29;;;;;;;12.00;3.22;;;8.10;99.90;;;;;;5053194;28;20106;-76
2022/05/04 04:47:56;;;;;;;23.20;4.07;;;8.20;99.90;;;;;;5053458;28;20110;-76
2022/05/04 04:50:23;;;;;;;11.82;4.00;;;8.20;99.90;;;;;;5054797;28;20049;-76
2022/05/04 04:52:48;;;;;;;6.70;2.53;;;8.20;99.90;;;;;;5054701;28;20045;-76
2022/05/04 04:55:14;;;;;;;10.70;3.00;;;8.20;99.90;;;;;;5054560;28;20037;-77
2022/05/04 04:57:40;;;;;;;14.52;3.75;;;8.20;99.90;;;;;;5053134;28;20128;-76
2022/05/04 05:00:06;;;;;;;11.38;3.00;;;8.30;99.90;;;;;;5053170;28;20056;-76
2022/05/04 05:02:35;;;;;;;11.75;3.10;;;8.30;99.90;;;;;;5053169;28;20063;-76
2022/05/04 05:05:04;;;;;;;7.85;3.80;;;8.30;99.90;;;;;;5054488;28;20119;-76
2022/05/04 05:07:30;;;;;;;12.23;3.45;;;8.20;99.90;;;;;;5053112;28;20477;-76
2022/05/04 05:09:56;;;;;;;10.95;2.95;;;8.30;99.90;;;;;;5052979;28;20049;-76
2022/05/04 05:12:22;;;;;;;10.18;4.03;;;8.30;99.90;;;;;;5052860;28;20041;-76
2022/05/04 05:17:33;;;;;;;11.93;3.05;;;8.40;99.90;;;;;;5054427;28;20044;-76
2022/05/04 05:20:00;;;;;;;14.43;4.47;;;8.50;99.90;;;;;;5053104;28;20045;-76
2022/05/04 05:22:25;;;;;;;9.13;2.75;;;8.50;99.90;;;;;;5054206;28;20036;-76
2022/05/04 05:24:51;;;;;;;13.98;3.38;;;8.40;99.90;;;;;;5052695;28;20115;-76
2022/05/04 05:27:17;;;;;;;11.18;3.70;;;8.40;99.90;;;;;;5052613;28;20077;-76
2022/05/04 05:29:42;;;;;;;13.15;2.92;;;8.40;99.90;;;;;;5052922;28;20052;-76
2022/05/04 05:32:08;;;;;;;12.73;2.53;;;8.50;99.90;;;;;;5086160;28;20122;-76
2022/05/04 05:34:34;;;;;;;12.13;3.25;;;8.50;99.90;;;;;;5054017;28;20041;-76
2022/05/04 05:37:03;;;;;;;9.98;2.97;;;8.50;99.90;;;;;;5052710;28;20481;-76
2022/05/04 05:39:29;;;;;;;11.57;3.00;;;8.50;99.90;;;;;;5052486;28;20048;-76
2022/05/04 05:41:54;;;;;;;15.23;3.55;;;8.50;99.90;;;;;;5052663;28;20049;-75
2022/05/04 05:44:20;;;;;;;10.77;3.00;;;8.40;99.90;;;;;;5052341;28;20049;-76
2022/05/04 05:46:46;;;;;;;7.53;3.15;;;8.50;99.90;;;;;;5053715;28;20049;-76
2022/05/04 05:49:11;;;;;;;10.77;3.00;;;8.50;99.90;;;;;;5086167;28;20045;-78
2022/05/04 05:51:37;;;;;;;14.82;3.00;;;8.50;99.90;;;;;;5053446;28;20143;-76
2022/05/04 05:54:03;;;;;;;6.40;2.90;;;8.50;99.90;;;;;;5053483;28;20053;-76
2022/05/04 05:56:28;;;;;;;10.73;3.15;;;8.60;99.90;;;;;;5053098;28;20077;-76
2022/05/04 05:58:54;;;;;;;10.43;2.85;;;8.60;99.90;;;;;;5053377;28;20079;-76
2022/05/04 06:01:20;;;;;;;7.60;3.22;;;8.60;99.90;;;;;;5053610;28;20039;-76
2022/05/04 06:03:45;;;;;;;10.23;3.20;;;8.60;99.90;;;;;;5051963;28;20053;-76
2022/05/04 06:06:12;;;;;;;9.88;3.42;;;8.60;99.90;;;;;;5053566;28;20084;-79
2022/05/04 06:08:37;;;;;;;10.68;2.70;;;8.60;99.90;;;;;;5085629;28;20044;-75
2022/05/04 06:11:04;;;;;;;6.85;2.78;;;8.80;99.90;;;;;;5053390;28;20085;-75
2022/05/04 06:13:30;;;;;;;14.18;3.38;;;8.80;99.90;;;;;;5053173;28;20475;-75
2022/05/04 06:15:56;;;;;;;10.85;2.80;;;8.90;99.90;;;;;;5053490;28;20512;-75
2022/05/04 06:18:22;;;;;;;10.35;2.88;;;8.90;99.90;;;;;;5052080;28;20060;-75
2022/05/04 06:20:47;;;;;;;9.50;3.75;;;8.80;99.90;;;;;;5053132;28;20090;-75
2022/05/04 06:23:13;;;;;;;7.80;3.20;;;8.80;99.90;;;;;;5053434;28;20052;-75
2022/05/04 06:25:41;;;;;;;7.00;2.95;;;8.80;99.90;;;;;;5052185;28;20068;-75
2022/05/04 06:28:06;;;;;;;7.10;2.78;;;8.80;99.90;;;;;;5053213;28;20060;-75
2022/05/04 06:36:01;;;;;;;15.75;3.20;;;8.90;99.90;;;;;;5052009;28;20056;-77
2022/05/04 06:38:27;;;;;;;7.03;2.33;;;9.00;99.90;;;;;;5051891;28;20037;-76
2022/05/04 06:40:53;;;;;;;12.18;2.83;;;9.10;99.90;;;;;;5051897;28;20120;-76
2022/05/04 06:43:19;;;;;;;8.57;3.17;;;9.00;99.90;;;;;;5053294;28;20083;-76
2022/05/04 06:45:45;;;;;;;11.45;2.63;;;9.10;99.90;;;;;;5051898;28;20080;-76
2022/05/04 06:48:10;;;;;;;10.82;2.55;;;9.10;99.90;;;;;;5051641;28;20480;-75
2022/05/04 06:50:36;;;;;;;9.40;2.70;;;9.20;99.90;;;;;;5053339;28;20056;-75
2022/05/04 06:53:01;;;;;;;7.25;3.17;;;9.20;99.90;;;;;;5053662;28;20443;-74
2022/05/04 06:55:27;;;;;;;8.48;2.78;;;9.30;99.90;;;;;;5053004;28;20048;-74
2022/05/04 06:57:53;;;;;;;12.10;2.80;;;9.20;99.90;;;;;;5053082;28;20037;-74
2022/05/04 07:00:19;;;;;;;9.88;2.63;;;9.20;99.90;;;;;;5052992;28;20412;-75
2022/05/04 07:02:44;;;;;;;8.95;2.83;;;9.40;99.90;;;;;;5051343;28;20132;-74
2022/05/04 07:05:10;;;;;;;9.13;2.95;;;9.40;99.90;;;;;;5052971;28;20053;-75
2022/05/04 07:07:36;;;;;;;10.75;2.88;;;9.40;99.90;;;;;;5056267;28;20091;-75
2022/05/04 07:10:02;;;;;;;12.02;3.05;;;9.40;99.90;;;;;;5063218;28;20045;-75
2022/05/04 07:12:28;;;;;;;10.27;2.50;;;9.50;99.90;;;;;;5055100;28;20048;-75
2022/05/04 07:14:56;;;;;;;11.43;3.10;;;9.60;99.90;;;;;;5054870;28;20047;-75
2022/05/04 07:17:22;;;;;;;9.15;3.03;;;9.60;99.90;;;;;;5055201;28;20144;-77
2022/05/04 07:19:47;;;;;;;10.70;3.35;;;9.70;99.90;;;;;;5055073;28;20053;-77
2022/05/04 07:22:13;;;;;;;12.80;3.00;;;9.70;99.90;;;;;;5055047;28;20420;-76
2022/05/04 07:24:39;;;;;;;8.77;2.85;;;9.70;99.90;;;;;;5054834;28;20049;-76
2022/05/04 07:27:06;;;;;;;10.02;2.80;;;9.80;99.90;;;;;;5056130;28;20048;-76
2022/05/04 07:29:34;;;;;;;12.30;3.38;;;9.80;99.90;;;;;;5055753;28;20400;-76
2022/05/04 07:32:00;;;;;;;11.15;2.80;;;9.90;99.90;;;;;;5055883;28;20044;-76
2022/05/04 07:34:26;;;;;;;17.08;3.38;;;9.90;99.90;;;;;;5056145;28;20045;-75
2022/05/04 07:36:52;;;;;;;11.70;3.50;;;9.90;99.90;;;;;;5066964;28;20055;-76
2022/05/04 07:44:57;;;;;;;7.32;2.40;;;10.00;99.90;;;;;;5054676;28;20064;-76
2022/05/04 07:47:22;;;;;;;10.55;3.90;;;10.00;99.90;;;;;;5055850;28;20037;-76
2022/05/04 07:49:48;;;;;;;10.25;2.50;;;10.00;99.90;;;;;;5054403;28;20400;-77
2022/05/04 07:52:14;;;;;;;7.35;3.40;;;9.90;99.90;;;;;;5087859;28;20045;-77
2022/05/04 07:54:40;;;;;;;8.27;2.80;;;10.00;99.90;;;;;;5055326;28;20045;-77
2022/05/04 07:57:05;;;;;;;9.82;2.83;;;10.00;99.90;;;;;;5054272;28;20041;-77
2022/05/04 07:59:31;;;;;;;8.75;2.60;;;10.00;99.90;;;;;;5072958;28;20048;-77
2022/05/04 08:04:40;;;;;;;13.65;3.03;;;10.20;99.90;;;;;;5073140;28;20395;-77
2022/05/04 08:07:06;;;;;;;7.75;2.55;;;10.20;99.90;;;;;;5065846;28;20037;-77
2022/05/04 08:09:36;;;;;;;7.35;2.72;;;10.30;99.90;;;;;;5078868;28;20072;-77
2022/05/04 08:12:06;;;;;;;12.75;3.40;;;10.30;99.90;;;;;;5088228;28;20401;-76
2022/05/04 08:14:33;;;;;;;15.07;2.80;;;10.20;99.90;;;;;;5082665;28;20041;-76
2022/05/04 08:16:59;;;;;;;11.25;2.90;;;10.40;99.90;;;;;;5084677;28;20551;-76
2022/05/04 08:19:24;;;;;;;12.07;3.80;;;10.40;99.90;;;;;;5093016;28;20035;-76
2022/05/04 08:21:50;;;;;;;10.20;2.70;;;10.40;99.90;;;;;;5094131;28;20089;-76
2022/05/04 08:24:15;;;;;;;8.10;2.50;;;10.50;99.90;;;;;;5095478;28;20119;-76
2022/05/04 08:26:42;;;;;;;7.53;2.88;;;10.60;99.90;;;;;;5094070;28;20403;-76
2022/05/04 08:29:08;;;;;;;10.27;3.25;;;10.50;99.90;;;;;;5095032;28;20464;-76
2022/05/04 08:31:33;;;;;;;8.77;2.90;;;10.50;99.90;;;;;;5093742;28;20452;-76
2022/05/04 08:33:59;;;;;;;7.88;2.45;;;10.50;99.90;;;;;;5093842;28;20046;-76
2022/05/04 08:36:25;;;;;;;9.60;2.55;;;10.50;99.90;;;;;;5075228;28;20097;-76
2022/05/04 08:38:50;;;;;;;10.00;2.97;;;10.60;99.90;;;;;;5076246;28;20142;-76
2022/05/04 08:41:16;;;;;;;8.32;2.70;;;10.50;99.90;;;;;;5074896;28;20422;-76
2022/05/04 08:43:43;;;;;;;8.05;2.90;;;10.50;99.90;;;;;;5073330;28;20391;-76
2022/05/04 08:46:15;;;;;;;7.38;2.80;;;10.60;99.90;;;;;;5067105;28;20052;-76
2022/05/04 08:48:43;;;;;;;7.90;3.40;;;10.50;99.90;;;;;;5055724;28;20053;-76
2022/05/04 08:51:10;;;;;;;11.48;2.47;;;10.60;99.90;;;;;;5054612;28;20036;-76
2022/05/04 08:53:37;;;;;;;12.32;3.00;;;10.80;99.90;;;;;;5053542;28;20045;-76
2022/05/04 08:56:02;;;;;;;10.00;3.00;;;10.80;99.90;;;;;;5054152;28;20387;-77
2022/05/04 08:58:28;;;;;;;12.43;3.00;;;10.90;99.90;;;;;;5053164;28;20472;-76
2022/05/04 09:00:54;;;;;;;10.70;3.00;;;10.90;99.90;;;;;;5053736;28;20048;-76
2022/05/04 09:03:21;;;;;;;9.15;2.97;;;10.80;99.90;;;;;;5051837;28;20144;-78
2022/05/04 09:05:48;;;;;;;10.27;2.92;;;10.90;99.90;;;;;;5054373;28;20037;-76
2022/05/04 09:08:14;;;;;;;11.43;2.65;;;11.00;99.90;;;;;;5053940;28;20532;-76
2022/05/04 09:10:44;;;;;;;12.32;3.38;;;11.10;99.90;;;;;;5054123;28;20132;-76
2022/05/04 09:13:10;;;;;;;9.52;3.20;;;11.10;99.90;;;;;;5054135;28;20127;-76
2022/05/04 09:15:38;;;;;;;8.45;2.95;;;11.00;99.90;;;;;;5054264;28;20129;-77
2022/05/04 09:18:09;;;;;;;7.43;2.70;;;11.10;99.90;;;;;;5053970;28;20041;-77
2022/05/04 09:20:53;;;;;;;9.45;3.10;;;11.30;99.90;;;;;;5052805;28;20048;-77
2022/05/04 09:23:30;;;;;;;9.85;3.28;;;11.30;99.90;;;;;;5052789;28;20053;-77
2022/05/04 09:26:01;;;;;;;8.63;4.22;;;11.40;99.90;;;;;;5053976;28;20139;-77
2022/05/04 09:28:28;;;;;;;11.50;2.97;;;11.40;99.90;;;;;;5052729;28;20102;-76
2022/05/04 09:30:59;;;;;;;12.35;4.35;;;11.40;99.90;;;;;;5053448;28;20053;-76
2022/05/04 09:33:29;;;;;;;12.38;2.75;;;11.40;99.90;;;;;;5052587;28;20044;-76
2022/05/04 09:35:56;;;;;;;9.13;3.10;;;11.50;99.90;;;;;;5053049;28;20049;-76
2022/05/04 09:46:42;;;;;;;11.52;3.53;;;11.50;99.90;;;;;;5053684;28;20523;-76
2022/05/04 09:49:22;;;;;;;6.60;3.00;;;11.70;99.90;;;;;;5053612;28;20052;-77
2022/05/04 09:51:50;;;;;;;9.30;2.92;;;11.90;99.90;;;;;;5053855;28;20152;-76
2022/05/04 09:54:27;;;;;;;13.48;3.80;;;11.90;99.90;;;;;;5052192;28;20049;-76
2022/05/04 09:56:56;;;;;;;8.15;2.67;;;12.00;99.90;;;;;;5053778;28;20047;-76
2022/05/04 09:59:26;;;;;;;7.47;2.70;;;12.20;99.90;;;;;;5053463;28;20480;-76
2022/05/04 10:01:53;;;;;;;10.85;3.00;;;12.20;99.90;;;;;;5053411;28;20076;-77
2022/05/04 10:04:20;;;;;;;10.32;2.85;;;12.30;99.90;;;;;;5052093;28;20057;-77
2022/05/04 10:06:52;;;;;;;10.00;4.15;;;12.20;99.90;;;;;;5053425;28;20455;-76
2022/05/04 10:09:18;;;;;;;10.95;3.28;;;12.30;99.90;;;;;;5053312;28;20444;-76
2022/05/04 10:11:45;;;;;;;10.98;3.20;;;12.40;99.90;;;;;;5053240;28;20119;-76
2022/05/04 10:14:13;;;;;;;11.70;3.28;;;12.40;99.90;;;;;;5052293;28;20132;-76
2022/05/04 10:16:51;;;;;;;16.30;3.40;;;12.70;99.90;;;;;;5051998;28;20036;-76
2022/05/04 10:19:26;;;;;;;12.43;3.67;;;13.00;99.90;;;;;;5052328;28;20068;-76
2022/05/04 10:21:55;;;;;;;11.35;3.22;;;12.80;99.90;;;;;;5052232;28;20051;-76
2022/05/04 10:24:22;;;;;;;7.97;3.30;;;12.80;99.90;;;;;;5052349;28;20547;-76
2022/05/04 10:26:48;;;;;;;9.50;3.25;;;13.00;99.90;;;;;;5053223;28;20534;-76
2022/05/04 10:32:34;;;;;;;8.65;3.13;;;13.00;99.90;;;;;;5051815;28;20073;-77
2022/05/04 10:35:12;;;;;;;7.78;2.90;;;13.00;99.90;;;;;;5051914;28;20118;-76
2022/05/04 10:38:13;;;;;;;8.50;3.50;;;13.40;99.90;;;;;;5052054;28;20068;-77
2022/05/04 10:40:47;;;;;;;13.73;3.45;;;13.60;99.90;;;;;;5041787;28;20389;-76
2022/05/04 10:43:17;;;;;;;10.77;3.40;;;13.60;99.90;;;;;;5055135;28;20041;-76
2022/05/04 10:45:45;;;;;;;8.35;2.80;;;13.50;99.50;;;;;;5055697;28;20502;-76
2022/05/04 10:48:20;;;;;;;10.63;3.20;;;13.40;99.90;;;;;;5055939;28;20060;-76
2022/05/04 10:50:55;;;;;;;7.85;2.88;;;13.80;99.90;;;;;;5055515;28;20488;-76
2022/05/04 10:53:24;;;;;;;5.70;2.92;;;14.00;99.40;;;;;;5055859;28;20052;-76
2022/05/04 10:56:05;;;;;;;11.63;3.30;;;14.30;99.90;;;;;;5055403;28;20052;-77
2022/05/04 10:58:31;;;;;;;13.10;3.78;;;14.40;96.40;;;;;;5055495;28;20048;-76
2022/05/04 11:01:12;;;;;;;10.52;3.25;;;14.40;99.90;;;;;;5056838;28;20055;-78
2022/05/04 11:03:49;;;;;;;7.40;2.85;;;14.30;99.60;;;;;;5055359;28;20048;-78
2022/05/04 11:06:29;;;;;;;8.73;3.10;;;14.40;99.90;;;;;;5055736;28;20087;-77
2022/05/04 11:08:57;;;;;;;11.77;5.07;;;14.60;99.90;;;;;;5055449;28;20069;-75
2022/05/04 11:11:26;;;;;;;10.48;3.20;;;14.80;99.90;;;;;;5056427;28;20400;-75
2022/05/04 11:13:53;;;;;;;10.57;3.72;;;14.70;99.90;;;;;;5055398;28;20114;-75
2022/05/04 11:16:23;;;;;;;9.07;3.30;;;14.80;99.90;;;;;;5055481;28;20059;-75
2022/05/04 11:18:49;;;;;;;8.75;3.20;;;14.50;99.90;;;;;;5058984;28;20079;-75
2022/05/04 11:21:16;;;;;;;9.25;3.28;;;14.70;99.90;;;;;;5065340;28;20041;-75
2022/05/04 11:23:51;;;;;;;9.65;3.05;;;14.80;99.90;;;;;;5072129;28;20037;-75
2022/05/04 11:26:40;;;;;;;7.30;3.20;;;14.90;99.90;;;;;;5076404;28;20052;-75
2022/05/04 11:29:09;;;;;;;9.57;3.85;;;14.90;99.90;;;;;;5075800;28;20053;-75
2022/05/04 11:31:35;;;;;;;8.50;3.05;;;15.00;99.90;;;;;;5074948;28;20044;-75
2022/05/04 11:34:01;;;;;;;12.38;3.47;;;14.70;96.40;;;;;;5074816;28;20098;-75
2022/05/04 11:36:27;;;;;;;12.55;3.63;;;14.80;99.90;;;;;;5075969;28;20434;-75
2022/05/04 11:38:53;;;;;;;12.45;3.83;;;15.00;99.90;;;;;;5076396;28;20480;-75
2022/05/04 11:41:20;;;;;;;12.25;5.00;;;15.00;99.90;;;;;;5076202;28;20049;-75
2022/05/04 11:43:49;;;;;;;9.88;3.50;;;14.90;99.90;;;;;;5074699;28;20047;-75
2022/05/04 11:46:15;;;;;;;12.73;3.53;;;14.90;99.90;;;;;;5073146;28;20045;-75
2022/05/04 11:48:44;;;;;;;10.77;3.78;;;14.80;97.40;;;;;;5074192;28;20049;-75
2022/05/04 11:51:11;;;;;;;8.73;3.53;;;14.90;99.90;;;;;;5075381;28;20479;-76
2022/05/04 11:53:37;;;;;;;10.10;3.45;;;14.90;99.90;;;;;;5073960;28;20119;-76
2022/05/04 11:56:04;;;;;;;13.35;4.13;;;14.80;98.70;;;;;;5074222;28;20060;-76
2022/05/04 11:58:32;;;;;;;13.20;3.85;;;15.00;97.00;;;;;;5075790;28;20040;-76
2022/05/04 12:00:58;;;;;;;10.90;4.07;;;15.10;99.90;;;;;;5074350;28;20053;-76
2022/05/04 12:03:25;;;;;;;9.30;4.00;;;15.10;99.90;;;;;;5073894;28;20127;-76
2022/05/04 12:05:51;;;;;;;9.60;3.60;;;15.20;99.90;;;;;;5074482;28;20048;-78
2022/05/04 12:08:19;;;;;;;11.82;3.33;;;15.20;97.80;;;;;;5074490;28;20076;-78
2022/05/04 12:10:46;;;;;;;9.38;3.80;;;15.00;99.90;;;;;;5074161;28;20053;-77
2022/05/04 12:13:13;;;;;;;11.85;3.80;;;15.10;99.70;;;;;;5074126;28;20048;-78
2022/05/04 12:15:39;;;;;;;13.77;3.97;;;15.40;99.90;;;;;;5075508;28;20044;-78
2022/05/04 12:18:05;;;;;;;15.43;4.18;;;15.30;99.90;;;;;;5075566;28;20605;-78
2022/05/04 12:20:34;;;;;;;13.40;3.90;;;15.30;99.90;;;;;;5075368;28;20052;-79
2022/05/04 12:23:04;;;;;;;8.52;3.85;;;15.10;97.50;;;;;;5075310;28;20126;-80
2022/05/04 12:25:31;;;;;;;14.68;3.95;;;14.90;95.70;;;;;;5075116;28;20475;-79
2022/05/04 12:27:57;;;;;;;14.05;4.45;;;15.10;96.80;;;;;;5075447;28;20062;-79
2022/05/04 12:33:11;;;;;;;10.88;3.60;;;15.20;99.00;;;;;;5073954;28;20071;-79
2022/05/04 12:35:39;;;;;;;11.10;3.47;;;15.30;99.20;;;;;;5073671;28;20530;-79
2022/05/04 12:38:06;;;;;;;11.18;3.63;;;15.40;99.90;;;;;;5073591;28;20502;-79
2022/05/04 12:40:33;;;;;;;9.57;3.83;;;15.30;98.50;;;;;;5075041;28;20045;-79
2022/05/04 12:43:00;;;;;;;11.60;5.38;;;15.00;99.90;;;;;;5073786;28;20052;-79
2022/05/04 12:45:27;;;;;;;12.35;3.92;;;15.10;99.90;;;;;;5074813;28;20040;-79
2022/05/04 12:47:57;;;;;;;9.98;4.30;;;15.10;99.90;;;;;;5073786;28;20045;-79
2022/05/04 12:50:24;;;;;;;9.23;4.15;;;15.30;98.80;;;;;;5073671;28;20087;-79
2022/05/04 12:52:51;;;;;;;14.55;4.28;;;15.20;99.90;;;;;;5073350;28;20128;-79
2022/05/04 12:55:17;;;;;;;12.88;4.80;;;15.10;98.90;;;;;;5073398;28;20086;-79
2022/05/04 12:57:43;;;;;;;13.50;4.53;;;15.10;96.70;;;;;;5073657;28;20473;-79
2022/05/04 13:00:13;;;;;;;13.60;4.38;;;15.10;99.90;;;;;;5074416;28;20054;-77
2022/05/04 13:02:42;;;;;;;10.93;4.32;;;15.20;99.90;;;;;;5073123;28;20143;-77
2022/05/04 13:05:11;;;;;;;9.98;4.10;;;15.40;99.90;;;;;;5072919;28;20052;-76
2022/05/04 13:07:37;;;;;;;12.18;4.38;;;15.20;92.80;;;;;;5073084;28;20049;-76
2022/05/04 13:10:04;;;;;;;12.70;4.30;;;15.40;99.90;;;;;;5073152;28;20060;-77
2022/05/04 13:12:30;;;;;;;10.13;4.18;;;15.40;99.90;;;;;;5073095;28;20046;-76
2022/05/04 13:14:55;;;;;;;14.27;4.18;;;15.40;99.90;;;;;;5074290;28;20048;-75
2022/05/04 13:17:21;;;;;;;10.95;4.30;;;15.30;99.90;;;;;;5073099;28;20068;-75
2022/05/04 13:19:47;;;;;;;11.95;4.38;;;15.40;97.00;;;;;;5072772;28;20471;-75
2022/05/04 13:22:13;;;;;;;10.52;4.47;;;15.00;96.70;;;;;;5073041;28;20037;-75
2022/05/04 13:24:38;;;;;;;13.27;4.80;;;15.00;96.40;;;;;;5073023;28;20056;-76
2022/05/04 13:27:05;;;;;;;17.08;5.03;;;15.10;99.90;;;;;;5072965;28;20048;-75